Time;durP1;ratioP1;P1;durP2;ratioP2;P2;SDS_P1;SDS_P2;PMS_P1;PMS_P2;Temp;Humidity;BMP_temperature;BMP_pressure;BME280_temperature;BME280_humidity;BME280_pressure;Samples;Min_cycle;Max_cycle;Signal;HPM_P1;HPM_P2
2023/06/28 00:00:32;;;;;;;5.28;1.38;;;25.10;83.50;;;;;;5015569;28;20105;-84
2023/06/28 00:02:57;;;;;;;2.80;1.30;;;25.00;83.50;;;;;;5015383;28;20033;-84
2023/06/28 00:05:23;;;;;;;1.58;1.17;;;25.00;83.40;;;;;;5015541;28;20021;-84
2023/06/28 00:07:49;;;;;;;2.38;1.10;;;25.00;83.10;;;;;;5015134;28;20025;-84
2023/06/28 00:10:14;;;;;;;1.50;1.10;;;25.00;83.20;;;;;;5015593;28;20101;-84
2023/06/28 00:12:40;;;;;;;2.05;1.02;;;25.00;83.00;;;;;;5014747;28;20042;-84
2023/06/28 00:15:07;;;;;;;1.15;1.00;;;24.90;82.80;;;;;;5015486;28;20462;-84
2023/06/28 00:17:32;;;;;;;2.42;1.40;;;24.90;82.60;;;;;;5014819;28;20029;-84
2023/06/28 00:20:00;;;;;;;3.17;1.65;;;24.90;82.30;;;;;;5014965;28;20049;-83
2023/06/28 00:22:29;;;;;;;1.80;0.90;;;24.80;80.50;;;;;;5014801;28;20034;-84
2023/06/28 00:24:59;;;;;;;4.33;1.20;;;24.70;81.20;;;;;;5015128;28;20030;-84
2023/06/28 00:27:27;;;;;;;;;;;24.70;81.20;;;;;;4997773;28;20683;-84
2023/06/28 00:29:53;;;;;;;1.35;1.02;;;24.60;81.80;;;;;;5015053;28;19905;-84
2023/06/28 00:32:19;;;;;;;1.33;0.82;;;24.60;81.30;;;;;;5014974;28;20486;-84
2023/06/28 00:34:45;;;;;;;0.82;0.65;;;24.60;81.00;;;;;;5014630;28;20065;-84
2023/06/28 00:37:10;;;;;;;1.65;1.08;;;24.60;80.70;;;;;;5014786;28;20092;-84
2023/06/28 00:39:36;;;;;;;1.10;1.00;;;24.70;80.40;;;;;;5014922;28;20152;-85
2023/06/28 00:42:02;;;;;;;2.03;1.00;;;24.60;79.90;;;;;;5015076;28;20022;-84
2023/06/28 00:44:28;;;;;;;2.88;0.88;;;24.70;79.80;;;;;;5014569;28;20493;-84
2023/06/28 00:46:58;;;;;;;1.80;0.90;;;24.70;80.00;;;;;;5015080;28;20486;-84
2023/06/28 00:49:34;;;;;;;1.50;0.95;;;24.70;79.90;;;;;;5014086;28;20502;-84
2023/06/28 00:52:01;;;;;;;2.38;1.33;;;24.70;79.60;;;;;;5014184;28;20033;-84
2023/06/28 00:54:26;;;;;;;2.38;1.23;;;24.60;79.10;;;;;;4996736;28;20132;-84
2023/06/28 00:56:53;;;;;;;2.42;1.20;;;24.70;78.90;;;;;;5014389;28;20117;-83
2023/06/28 00:59:20;;;;;;;1.42;1.20;;;24.70;78.90;;;;;;5014420;28;20034;-84
2023/06/28 01:01:48;;;;;;;1.52;0.80;;;24.70;79.30;;;;;;5014319;28;20029;-83
2023/06/28 01:04:13;;;;;;;1.70;1.10;;;24.70;79.10;;;;;;5014310;28;20373;-83
2023/06/28 01:06:41;;;;;;;1.30;1.00;;;24.80;79.10;;;;;;5014621;28;20109;-83
2023/06/28 01:09:10;;;;;;;1.05;0.95;;;24.80;79.10;;;;;;5014427;28;20482;-84
2023/06/28 01:11:37;;;;;;;1.20;0.98;;;24.80;79.20;;;;;;5014007;28;20080;-83
2023/06/28 01:14:05;;;;;;;2.40;1.00;;;24.80;78.90;;;;;;5014350;28;20441;-84
2023/06/28 01:16:31;;;;;;;1.02;0.90;;;24.80;78.50;;;;;;5014467;28;20033;-84
2023/06/28 01:18:57;;;;;;;1.13;0.90;;;24.80;78.20;;;;;;5014138;28;20079;-84
2023/06/28 01:21:28;;;;;;;2.53;0.90;;;24.80;78.80;;;;;;5013412;28;20028;-84
2023/06/28 01:23:54;;;;;;;1.58;1.00;;;24.90;79.00;;;;;;5014159;28;20476;-84
2023/06/28 01:26:20;;;;;;;2.75;1.42;;;24.90;79.20;;;;;;5014289;28;20124;-84
2023/06/28 01:28:47;;;;;;;2.60;1.00;;;24.90;78.80;;;;;;5014023;28;20381;-83
2023/06/28 01:31:13;;;;;;;1.20;1.00;;;24.90;78.50;;;;;;4996194;28;20511;-84
2023/06/28 01:33:42;;;;;;;1.05;0.90;;;24.90;78.20;;;;;;5013801;28;20062;-84
2023/06/28 01:36:07;;;;;;;1.50;1.10;;;24.90;78.30;;;;;;5013956;28;20030;-84
2023/06/28 01:38:34;;;;;;;1.70;1.20;;;24.90;78.20;;;;;;5013469;28;20084;-84
2023/06/28 01:41:00;;;;;;;1.55;1.13;;;24.90;77.90;;;;;;5013440;28;20343;-84
2023/06/28 01:43:26;;;;;;;0.75;0.70;;;24.80;77.80;;;;;;5013577;28;20029;-84
2023/06/28 01:45:52;;;;;;;7.25;0.98;;;24.70;77.90;;;;;;5013378;28;20037;-84
2023/06/28 01:48:18;;;;;;;2.35;1.13;;;24.70;78.20;;;;;;5013129;28;20061;-83
2023/06/28 01:50:45;;;;;;;1.10;1.00;;;24.60;78.20;;;;;;5013740;28;20107;-83
2023/06/28 01:53:11;;;;;;;6.10;1.10;;;24.60;78.60;;;;;;5013577;28;20029;-83
2023/06/28 01:55:37;;;;;;;2.22;1.13;;;24.60;79.00;;;;;;5012857;28;20508;-83
2023/06/28 01:58:03;;;;;;;1.33;0.88;;;24.50;79.10;;;;;;5012540;28;20026;-83
2023/06/28 02:00:28;;;;;;;4.68;1.10;;;24.50;79.10;;;;;;5012273;28;20026;-83
2023/06/28 02:02:54;;;;;;;1.65;1.10;;;24.50;79.10;;;;;;5012729;28;20504;-83
2023/06/28 02:05:21;;;;;;;2.13;1.00;;;24.60;79.20;;;;;;5012674;28;20363;-83
2023/06/28 02:07:46;;;;;;;1.58;1.13;;;24.60;79.30;;;;;;5013473;28;20018;-84
2023/06/28 02:10:12;;;;;;;1.17;1.02;;;24.70;79.20;;;;;;5013337;28;20030;-84
2023/06/28 02:12:38;;;;;;;2.58;1.17;;;24.70;78.70;;;;;;5012935;28;20038;-84
2023/06/28 02:15:05;;;;;;;1.10;0.85;;;24.70;78.20;;;;;;5013116;28;20447;-83
2023/06/28 02:17:31;;;;;;;2.22;1.30;;;24.70;78.10;;;;;;5013016;28;20026;-83
2023/06/28 02:20:00;;;;;;;2.33;1.15;;;24.60;78.00;;;;;;5013038;28;20062;-84
2023/06/28 02:22:26;;;;;;;1.80;1.02;;;24.70;78.10;;;;;;5013016;28;20079;-84
2023/06/28 02:24:52;;;;;;;2.15;1.23;;;24.70;78.00;;;;;;5012828;28;20505;-84
2023/06/28 02:27:18;;;;;;;2.78;1.10;;;24.70;78.20;;;;;;5013118;28;20406;-83
2023/06/28 02:29:43;;;;;;;1.67;1.10;;;24.60;77.80;;;;;;5012199;28;20137;-83
2023/06/28 02:32:09;;;;;;;1.60;1.20;;;24.60;77.80;;;;;;5012643;28;20034;-84
2023/06/28 02:34:35;;;;;;;4.60;1.23;;;24.70;77.70;;;;;;5012990;28;20018;-84
2023/06/28 02:37:01;;;;;;;2.33;1.50;;;24.70;77.60;;;;;;5013104;28;20030;-84
2023/06/28 02:39:26;;;;;;;2.85;1.23;;;24.70;77.60;;;;;;5012828;28;20492;-83
2023/06/28 02:41:52;;;;;;;1.42;1.15;;;24.70;77.30;;;;;;5012967;28;20030;-84
2023/06/28 02:44:18;;;;;;;2.22;1.45;;;24.80;77.00;;;;;;5012855;28;20028;-82
2023/06/28 02:46:44;;;;;;;1.88;1.13;;;24.80;76.90;;;;;;5012380;28;20030;-83
2023/06/28 02:49:09;;;;;;;2.60;1.48;;;24.80;76.60;;;;;;4995374;28;20041;-83
2023/06/28 02:51:35;;;;;;;1.67;1.10;;;24.80;76.40;;;;;;4995573;28;20030;-83
2023/06/28 02:54:01;;;;;;;2.15;1.30;;;24.80;75.90;;;;;;5012773;28;20034;-83
2023/06/28 02:56:28;;;;;;;1.83;0.95;;;24.80;76.30;;;;;;5013383;28;20026;-83
2023/06/28 02:58:53;;;;;;;2.55;1.23;;;24.80;76.20;;;;;;5012349;28;20038;-83
2023/06/28 03:01:22;;;;;;;2.10;1.27;;;24.80;76.10;;;;;;5012441;28;20026;-78
2023/06/28 03:03:48;;;;;;;2.92;1.10;;;24.80;76.20;;;;;;4995213;28;20029;-84
2023/06/28 03:06:17;;;;;;;3.22;1.50;;;24.80;76.00;;;;;;5013011;28;20018;-83
2023/06/28 03:08:42;;;;;;;1.15;1.02;;;24.80;75.90;;;;;;5011880;28;20050;-83
2023/06/28 03:11:08;;;;;;;3.38;1.30;;;24.80;75.80;;;;;;5012265;28;20026;-83
2023/06/28 03:13:34;;;;;;;2.63;1.35;;;24.70;75.60;;;;;;4995068;28;20397;-83
2023/06/28 03:16:00;;;;;;;1.88;1.20;;;24.70;75.40;;;;;;5005262;28;20053;-83
2023/06/28 03:18:26;;;;;;;4.07;1.20;;;24.70;75.40;;;;;;5015893;28;20359;-83
2023/06/28 03:20:52;;;;;;;3.28;1.42;;;24.80;75.30;;;;;;5016240;28;20034;-84
2023/06/28 03:23:18;;;;;;;2.53;1.42;;;24.80;75.40;;;;;;5016522;28;20051;-83
2023/06/28 03:25:44;;;;;;;1.50;1.08;;;24.70;75.20;;;;;;5016117;28;20029;-82
2023/06/28 03:28:11;;;;;;;3.85;1.25;;;24.70;75.00;;;;;;4997587;28;20068;-83
2023/06/28 03:30:36;;;;;;;1.85;1.08;;;24.70;75.10;;;;;;5016198;28;20037;-83
2023/06/28 03:33:03;;;;;;;3.28;1.50;;;24.60;75.10;;;;;;5016073;28;20026;-83
2023/06/28 03:35:29;;;;;;;1.85;1.27;;;24.60;75.20;;;;;;5015846;28;20029;-83
2023/06/28 03:37:55;;;;;;;1.40;1.30;;;24.60;74.90;;;;;;5015729;28;20080;-83
2023/06/28 03:40:21;;;;;;;3.22;1.50;;;24.60;74.80;;;;;;5016252;28;20022;-83
2023/06/28 03:42:48;;;;;;;3.92;1.70;;;24.60;74.90;;;;;;5015957;28;20022;-83
2023/06/28 03:45:15;;;;;;;2.97;1.70;;;24.50;75.10;;;;;;5014879;28;20080;-83
2023/06/28 03:47:41;;;;;;;1.65;1.20;;;24.50;75.50;;;;;;5015124;28;20038;-84
2023/06/28 03:50:07;;;;;;;2.00;1.40;;;24.50;75.60;;;;;;5015812;28;20545;-83
2023/06/28 03:52:33;;;;;;;2.25;1.45;;;24.50;75.50;;;;;;5014262;28;20028;-83
2023/06/28 03:54:59;;;;;;;3.70;1.30;;;24.50;75.50;;;;;;5015797;28;20076;-84
2023/06/28 03:57:24;;;;;;;2.08;1.40;;;24.50;75.40;;;;;;5015676;28;20037;-84
2023/06/28 03:59:50;;;;;;;3.35;1.67;;;24.50;75.50;;;;;;5015561;28;20034;-84
2023/06/28 04:02:16;;;;;;;3.67;1.38;;;24.50;75.30;;;;;;5015442;28;20022;-83
2023/06/28 04:04:41;;;;;;;5.00;1.40;;;24.40;75.30;;;;;;5015262;28;20030;-84
2023/06/28 04:07:07;;;;;;;2.67;1.33;;;24.40;75.40;;;;;;5015745;28;20551;-84
2023/06/28 04:09:33;;;;;;;4.40;1.73;;;24.50;75.40;;;;;;5015249;28;20029;-83
2023/06/28 04:11:59;;;;;;;2.75;1.73;;;24.50;75.30;;;;;;5014979;28;20096;-83
2023/06/28 04:14:25;;;;;;;1.65;1.50;;;24.50;74.80;;;;;;5015343;28;20034;-84
2023/06/28 04:16:53;;;;;;;3.17;1.60;;;24.50;74.90;;;;;;5015032;28;20462;-83
2023/06/28 04:19:19;;;;;;;2.78;1.55;;;24.50;74.80;;;;;;5015096;28;20462;-83
2023/06/28 04:21:45;;;;;;;4.00;1.50;;;24.50;74.70;;;;;;5014658;28;20036;-83
2023/06/28 04:24:11;;;;;;;3.80;1.67;;;24.50;75.20;;;;;;5014791;28;20390;-84
2023/06/28 04:26:36;;;;;;;3.13;1.63;;;24.40;74.90;;;;;;5014914;28;20033;-84
2023/06/28 04:29:02;;;;;;;2.83;1.92;;;24.50;74.90;;;;;;5013748;28;20467;-84
2023/06/28 04:31:28;;;;;;;4.65;1.88;;;24.50;74.70;;;;;;4997254;28;20409;-83
2023/06/28 04:33:57;;;;;;;3.28;1.90;;;24.50;75.10;;;;;;5014654;28;20032;-83
2023/06/28 04:36:26;;;;;;;3.42;1.90;;;24.40;74.60;;;;;;5014798;28;20041;-83
2023/06/28 04:38:54;;;;;;;2.00;1.48;;;24.40;74.60;;;;;;5014743;28;20092;-83
2023/06/28 04:41:27;;;;;;;2.40;1.92;;;24.40;74.60;;;;;;5014935;28;20030;-83
2023/06/28 04:43:57;;;;;;;1.70;1.50;;;24.40;74.70;;;;;;5014037;28;20050;-83
2023/06/28 04:46:26;;;;;;;4.03;2.13;;;24.40;74.70;;;;;;5014445;28;20361;-83
2023/06/28 04:48:52;;;;;;;4.30;1.50;;;24.40;74.50;;;;;;4996977;28;20373;-83
2023/06/28 04:51:19;;;;;;;2.40;1.83;;;24.40;74.40;;;;;;4996849;28;20084;-83
2023/06/28 04:53:46;;;;;;;3.05;1.92;;;24.40;74.40;;;;;;5014635;28;20041;-83
2023/06/28 04:56:12;;;;;;;4.00;1.90;;;24.40;74.20;;;;;;5014245;28;20061;-83
2023/06/28 04:58:38;;;;;;;2.97;1.70;;;24.40;74.10;;;;;;4996615;28;20060;-83
2023/06/28 05:01:08;;;;;;;2.88;1.60;;;24.40;73.70;;;;;;5014150;28;20065;-83
2023/06/28 05:03:38;;;;;;;2.28;1.63;;;24.50;73.40;;;;;;5013903;28;20061;-83
2023/06/28 05:06:08;;;;;;;2.45;1.52;;;24.40;73.20;;;;;;4996204;28;20033;-83
2023/06/28 05:08:35;;;;;;;3.15;1.60;;;24.40;73.20;;;;;;5014197;28;20041;-83
2023/06/28 05:11:02;;;;;;;2.38;1.52;;;24.50;73.30;;;;;;5014317;28;20081;-83
2023/06/28 05:13:28;;;;;;;3.35;1.92;;;24.50;73.30;;;;;;5013838;28;20050;-83
2023/06/28 05:15:54;;;;;;;3.10;1.88;;;24.50;73.10;;;;;;5014024;28;20042;-83
2023/06/28 05:18:20;;;;;;;2.92;1.70;;;24.50;72.70;;;;;;4996161;28;20583;-83
2023/06/28 05:20:46;;;;;;;3.20;1.40;;;24.50;72.60;;;;;;5013859;28;20034;-84
2023/06/28 05:23:13;;;;;;;4.35;2.08;;;24.50;72.50;;;;;;5014037;28;20379;-83
2023/06/28 05:25:40;;;;;;;2.88;1.75;;;24.60;72.70;;;;;;5014066;28;20037;-83
2023/06/28 05:28:07;;;;;;;3.58;1.75;;;24.60;72.70;;;;;;5013941;28;20105;-84
2023/06/28 05:30:33;;;;;;;2.65;1.80;;;24.60;72.80;;;;;;5013900;28;20452;-83
2023/06/28 05:33:02;;;;;;;3.40;1.63;;;24.60;72.60;;;;;;5013542;28;20026;-84
2023/06/28 05:35:34;;;;;;;2.53;1.60;;;24.60;72.20;;;;;;5013590;28;20020;-83
2023/06/28 05:38:01;;;;;;;9.98;2.00;;;24.70;72.30;;;;;;5013841;28;20037;-84
2023/06/28 05:40:27;;;;;;;3.97;1.48;;;24.70;72.50;;;;;;5013249;28;20038;-84
2023/06/28 05:42:53;;;;;;;2.60;1.63;;;24.80;72.10;;;;;;5012767;28;20501;-83
2023/06/28 05:45:23;;;;;;;3.55;1.63;;;24.80;71.70;;;;;;5012563;28;20026;-84
2023/06/28 05:47:50;;;;;;;2.17;1.80;;;24.80;71.60;;;;;;5012018;28;20427;-84
2023/06/28 05:50:16;;;;;;;2.45;1.70;;;24.90;71.60;;;;;;5013199;28;20112;-83
2023/06/28 05:52:44;;;;;;;2.45;1.70;;;25.00;71.50;;;;;;5013783;28;20037;-82
2023/06/28 05:55:10;;;;;;;1.70;1.50;;;25.00;71.90;;;;;;5013302;28;20041;-84
2023/06/28 05:57:36;;;;;;;3.92;2.13;;;25.10;71.90;;;;;;5013706;28;20037;-83
2023/06/28 06:00:07;;;;;;;2.47;1.77;;;25.10;71.60;;;;;;5013483;28;20044;-83
2023/06/28 06:02:33;;;;;;;3.72;1.85;;;25.10;71.10;;;;;;4994986;28;20025;-83
2023/06/28 06:04:59;;;;;;;2.97;1.90;;;25.10;70.70;;;;;;5013287;28;20034;-84
2023/06/28 06:07:25;;;;;;;2.65;1.70;;;25.10;70.80;;;;;;5012373;28;20029;-84
2023/06/28 06:09:50;;;;;;;2.00;1.60;;;25.10;70.90;;;;;;5013334;28;20033;-84
2023/06/28 06:12:17;;;;;;;3.38;1.75;;;25.10;70.60;;;;;;5012971;28;20052;-85
2023/06/28 06:14:43;;;;;;;3.35;1.65;;;25.10;70.90;;;;;;5012026;28;20382;-85
2023/06/28 06:17:09;;;;;;;3.22;1.70;;;25.00;70.60;;;;;;5012796;28;20422;-86
2023/06/28 06:19:35;;;;;;;3.00;1.95;;;25.00;70.70;;;;;;5013167;28;20113;-86
2023/06/28 06:22:01;;;;;;;4.65;1.98;;;25.00;70.90;;;;;;5012863;28;20026;-86
2023/06/28 06:24:26;;;;;;;2.88;1.83;;;25.00;70.80;;;;;;5012864;28;20057;-85
2023/06/28 06:26:52;;;;;;;4.63;2.00;;;25.00;70.60;;;;;;5012125;28;20081;-85
2023/06/28 06:29:18;;;;;;;3.42;1.95;;;25.00;70.50;;;;;;5012521;28;20117;-84
2023/06/28 06:31:44;;;;;;;2.10;1.67;;;25.00;70.60;;;;;;5012834;28;20029;-84
2023/06/28 06:34:09;;;;;;;2.75;1.55;;;25.10;70.30;;;;;;5012233;28;20026;-84
2023/06/28 06:36:36;;;;;;;2.42;1.55;;;25.10;70.20;;;;;;5012918;28;20033;-84
2023/06/28 06:39:02;;;;;;;2.08;1.60;;;25.10;70.40;;;;;;4994960;28;20084;-83
2023/06/28 06:41:27;;;;;;;3.95;1.92;;;25.20;70.20;;;;;;4994808;28;20018;-83
2023/06/28 06:43:53;;;;;;;2.65;1.80;;;25.20;70.10;;;;;;5012405;28;20037;-83
2023/06/28 06:46:20;;;;;;;8.40;2.45;;;25.20;69.80;;;;;;4995434;28;20113;-83
2023/06/28 06:48:46;;;;;;;2.42;1.60;;;25.30;69.60;;;;;;4976010;28;20034;-83
2023/06/28 06:51:12;;;;;;;3.50;1.63;;;25.30;69.50;;;;;;4996169;28;20026;-84
2023/06/28 06:53:38;;;;;;;3.40;1.58;;;25.40;69.60;;;;;;5015630;28;20048;-84
2023/06/28 06:56:04;;;;;;;6.47;2.30;;;25.40;69.40;;;;;;5012437;28;20397;-84
2023/06/28 06:58:30;;;;;;;3.95;1.48;;;25.40;68.80;;;;;;5014263;28;20042;-83
2023/06/28 07:00:56;;;;;;;2.33;1.67;;;25.40;68.90;;;;;;5008065;28;20032;-84
2023/06/28 07:03:22;;;;;;;3.65;1.67;;;25.50;68.00;;;;;;4998752;28;20034;-83
2023/06/28 07:05:47;;;;;;;4.20;1.92;;;25.50;68.40;;;;;;5015833;28;20607;-83
2023/06/28 07:08:13;;;;;;;3.28;2.08;;;25.50;68.30;;;;;;5014863;28;20041;-83
2023/06/28 07:10:39;;;;;;;3.50;1.65;;;25.50;68.20;;;;;;5015361;28;20053;-79
2023/06/28 07:13:05;;;;;;;2.55;1.35;;;25.50;68.00;;;;;;5015672;28;20121;-78
2023/06/28 07:15:30;;;;;;;3.85;2.10;;;25.60;68.50;;;;;;5015939;28;20105;-78
2023/06/28 07:17:56;;;;;;;2.28;1.40;;;25.60;67.80;;;;;;5016110;28;20109;-78
2023/06/28 07:20:22;;;;;;;3.08;1.67;;;25.60;68.30;;;;;;5016011;28;20077;-78
2023/06/28 07:22:48;;;;;;;2.30;1.50;;;25.60;68.60;;;;;;5015709;28;20092;-78
2023/06/28 07:25:14;;;;;;;4.75;1.75;;;25.60;68.50;;;;;;5015986;28;20018;-78
2023/06/28 07:27:40;;;;;;;3.53;1.73;;;25.60;68.00;;;;;;5016080;28;20021;-78
2023/06/28 07:30:07;;;;;;;3.00;2.00;;;25.60;68.00;;;;;;5015909;28;20033;-78
2023/06/28 07:32:33;;;;;;;2.78;1.73;;;25.60;68.10;;;;;;4998288;28;20399;-78
2023/06/28 07:34:59;;;;;;;2.38;1.88;;;25.70;67.80;;;;;;5015840;28;20084;-78
2023/06/28 07:37:25;;;;;;;3.40;1.65;;;25.70;67.80;;;;;;5016010;28;20096;-78
2023/06/28 07:39:51;;;;;;;3.40;1.50;;;25.70;67.60;;;;;;5015824;28;20076;-78
2023/06/28 07:42:18;;;;;;;2.10;1.75;;;25.70;68.00;;;;;;5015905;28;20030;-79
2023/06/28 07:44:44;;;;;;;2.83;1.70;;;25.80;68.30;;;;;;5015079;28;20041;-78
2023/06/28 07:47:09;;;;;;;2.45;1.75;;;25.90;67.80;;;;;;5015435;28;20026;-78
2023/06/28 07:49:35;;;;;;;3.35;1.60;;;26.00;68.20;;;;;;5015817;28;20030;-78
2023/06/28 07:52:01;;;;;;;2.65;1.80;;;26.00;68.00;;;;;;5015784;28;20034;-79
2023/06/28 07:54:27;;;;;;;3.03;1.90;;;26.00;67.60;;;;;;5015611;28;20029;-80
2023/06/28 07:56:52;;;;;;;5.00;1.80;;;26.00;67.70;;;;;;5015523;28;20447;-80
2023/06/28 07:59:20;;;;;;;2.65;1.85;;;26.00;67.40;;;;;;5015337;28;20113;-79
2023/06/28 08:01:47;;;;;;;3.22;1.60;;;26.10;67.10;;;;;;5015439;28;20383;-78
2023/06/28 08:04:15;;;;;;;2.33;1.70;;;26.10;67.10;;;;;;5015394;28;20100;-78
2023/06/28 08:06:41;;;;;;;4.25;1.80;;;26.20;66.40;;;;;;5015351;28;20026;-78
2023/06/28 08:09:07;;;;;;;1.92;1.33;;;26.20;66.50;;;;;;5015295;28;20026;-79
2023/06/28 08:11:33;;;;;;;2.63;1.50;;;26.30;67.60;;;;;;5015721;28;20470;-79
2023/06/28 08:13:59;;;;;;;3.35;1.67;;;26.40;67.70;;;;;;4997379;28;20034;-79
2023/06/28 08:16:25;;;;;;;4.45;2.13;;;26.60;67.00;;;;;;5014739;28;20049;-78
2023/06/28 08:18:51;;;;;;;3.03;1.85;;;26.60;65.80;;;;;;5015151;28;20054;-77
2023/06/28 08:21:16;;;;;;;3.80;2.05;;;26.60;66.10;;;;;;5015215;28;20517;-80
2023/06/28 08:23:42;;;;;;;3.17;1.85;;;26.50;66.00;;;;;;5015004;28;20026;-79
2023/06/28 08:26:08;;;;;;;2.10;1.58;;;26.50;66.00;;;;;;4997742;28;20060;-79
2023/06/28 08:28:34;;;;;;;2.50;1.38;;;26.50;66.50;;;;;;5015049;28;20026;-80
2023/06/28 08:30:59;;;;;;;1.95;1.55;;;26.60;66.70;;;;;;5015158;28;20061;-80
2023/06/28 08:33:25;;;;;;;3.35;1.75;;;26.70;66.60;;;;;;5013723;28;20072;-80
2023/06/28 08:35:51;;;;;;;2.15;1.65;;;26.70;66.20;;;;;;5014569;28;20042;-79
2023/06/28 08:38:17;;;;;;;3.30;1.73;;;26.70;66.00;;;;;;5014300;28;20037;-76
2023/06/28 08:40:43;;;;;;;2.78;1.58;;;26.70;66.00;;;;;;5014380;28;20041;-79
2023/06/28 08:43:15;;;;;;;5.18;1.85;;;26.70;65.90;;;;;;5014055;28;20061;-78
2023/06/28 08:45:44;;;;;;;3.30;1.70;;;26.70;65.90;;;;;;5005142;28;20026;-78
2023/06/28 08:48:10;;;;;;;4.38;2.05;;;26.80;66.90;;;;;;4994455;28;20031;-78
2023/06/28 08:50:39;;;;;;;2.38;1.77;;;26.90;64.50;;;;;;4994805;28;20026;-78
2023/06/28 08:53:12;;;;;;;3.45;1.92;;;27.00;64.90;;;;;;5006976;28;20025;-78
2023/06/28 08:55:41;;;;;;;2.53;1.70;;;27.00;64.80;;;;;;4996706;28;20030;-79
2023/06/28 08:58:10;;;;;;;7.22;1.83;;;27.00;64.30;;;;;;5013427;28;20531;-78
2023/06/28 09:00:35;;;;;;;3.75;1.70;;;26.90;64.00;;;;;;5013710;28;20462;-80
2023/06/28 09:03:01;;;;;;;5.82;1.48;;;26.80;64.10;;;;;;5014534;28;20016;-79
2023/06/28 09:05:27;;;;;;;1.73;1.27;;;26.90;64.20;;;;;;5014444;28;20450;-78
2023/06/28 09:07:55;;;;;;;3.15;1.60;;;27.00;63.90;;;;;;5014484;28;20053;-77
2023/06/28 09:10:20;;;;;;;4.95;1.58;;;27.00;63.60;;;;;;4996773;28;20040;-79
2023/06/28 09:12:47;;;;;;;1.90;1.30;;;27.10;63.60;;;;;;5008214;28;20050;-79
2023/06/28 09:15:16;;;;;;;2.17;1.40;;;27.10;63.00;;;;;;5013342;28;20029;-78
2023/06/28 09:17:42;;;;;;;3.45;1.73;;;27.20;63.30;;;;;;5014073;28;20056;-79
2023/06/28 09:20:18;;;;;;;2.97;1.75;;;27.30;63.00;;;;;;5014034;28;20461;-79
2023/06/28 09:22:55;;;;;;;2.75;1.50;;;27.20;62.70;;;;;;4977558;28;20030;-78
2023/06/28 09:25:21;;;;;;;5.18;1.35;;;27.30;62.70;;;;;;4977034;28;20072;-78
2023/06/28 09:27:47;;;;;;;3.00;1.60;;;27.30;62.90;;;;;;5005541;28;20096;-79
2023/06/28 09:30:18;;;;;;;2.55;1.52;;;27.30;63.40;;;;;;5010066;28;20137;-78
2023/06/28 09:32:50;;;;;;;5.15;1.80;;;27.30;63.50;;;;;;5009507;28;20025;-78
2023/06/28 09:35:19;;;;;;;7.30;1.55;;;27.30;64.00;;;;;;5014033;28;20034;-78
2023/06/28 09:37:57;;;;;;;2.83;1.48;;;27.30;64.30;;;;;;5014093;28;20030;-78
2023/06/28 09:40:23;;;;;;;4.13;1.70;;;27.40;64.30;;;;;;5013701;28;20393;-77
2023/06/28 09:42:50;;;;;;;3.65;1.33;;;27.40;63.10;;;;;;5012937;28;20018;-77
2023/06/28 09:45:27;;;;;;;2.75;1.38;;;27.40;62.40;;;;;;5014044;28;20486;-77
2023/06/28 09:48:02;;;;;;;4.05;1.77;;;27.40;62.50;;;;;;5013318;28;20096;-77
2023/06/28 09:50:47;;;;;;;7.15;1.70;;;27.50;61.60;;;;;;5012775;28;20104;-77
2023/06/28 09:53:22;;;;;;;3.97;1.48;;;27.60;61.90;;;;;;5009530;28;20030;-78
2023/06/28 09:55:49;;;;;;;6.63;1.52;;;27.60;62.20;;;;;;5012441;28;20092;-77
2023/06/28 09:58:17;;;;;;;4.05;1.55;;;27.70;62.10;;;;;;5013003;28;20022;-77
2023/06/28 10:00:46;;;;;;;5.03;1.75;;;27.90;62.60;;;;;;5006276;28;20022;-77
2023/06/28 10:03:13;;;;;;;1.85;1.45;;;28.00;61.50;;;;;;5009896;28;20076;-79
2023/06/28 10:05:41;;;;;;;3.47;1.20;;;28.10;62.30;;;;;;5013569;28;20030;-80
2023/06/28 10:08:09;;;;;;;10.63;1.48;;;28.20;60.60;;;;;;5013473;28;20041;-81
2023/06/28 10:10:36;;;;;;;4.85;1.42;;;28.40;60.80;;;;;;5008856;28;20050;-81
2023/06/28 10:13:05;;;;;;;2.88;1.45;;;28.50;60.80;;;;;;5001283;28;20043;-81
2023/06/28 10:15:39;;;;;;;4.47;1.38;;;28.60;61.70;;;;;;5002150;28;20030;-80
2023/06/28 10:18:05;;;;;;;1.85;1.05;;;28.70;60.60;;;;;;4999238;28;20057;-77
2023/06/28 10:20:31;;;;;;;8.73;1.73;;;28.80;61.20;;;;;;4999517;28;20019;-78
2023/06/28 10:22:59;;;;;;;3.78;1.40;;;28.80;58.30;;;;;;4981696;28;20323;-78
2023/06/28 10:25:26;;;;;;;2.35;1.25;;;28.90;58.70;;;;;;5000639;28;20057;-78
2023/06/28 10:27:53;;;;;;;2.97;1.15;;;28.90;59.10;;;;;;5002686;28;20030;-78
2023/06/28 10:30:21;;;;;;;7.88;2.13;;;29.00;58.40;;;;;;5009724;28;20060;-79
2023/06/28 10:32:47;;;;;;;6.95;1.90;;;29.10;57.50;;;;;;5011470;28;20034;-78
2023/06/28 10:35:13;;;;;;;4.35;1.83;;;29.10;57.70;;;;;;5009999;28;20034;-79
2023/06/28 10:37:39;;;;;;;4.22;1.40;;;29.20;57.20;;;;;;5001347;28;20038;-78
2023/06/28 10:40:06;;;;;;;2.08;1.20;;;29.20;56.70;;;;;;5013703;28;20034;-78
2023/06/28 10:42:41;;;;;;;3.42;1.45;;;29.30;57.80;;;;;;5017110;28;20026;-78
2023/06/28 10:45:08;;;;;;;3.47;1.73;;;29.40;57.90;;;;;;5016918;28;20379;-79
2023/06/28 10:47:34;;;;;;;2.33;1.38;;;29.40;58.20;;;;;;5006351;28;20514;-78
2023/06/28 10:50:07;;;;;;;4.13;1.50;;;29.50;57.70;;;;;;4997263;28;20053;-78
2023/06/28 10:52:33;;;;;;;2.40;1.38;;;29.70;55.60;;;;;;4982702;28;20108;-78
2023/06/28 10:55:00;;;;;;;4.82;1.42;;;29.60;56.40;;;;;;4997203;28;20482;-78
2023/06/28 10:57:41;;;;;;;3.35;1.38;;;29.60;56.40;;;;;;4997346;28;20038;-79
2023/06/28 11:00:36;;;;;;;3.72;1.35;;;29.50;55.50;;;;;;4996853;28;20113;-78
2023/06/28 11:03:04;;;;;;;2.63;1.30;;;29.50;57.10;;;;;;4989276;28;20034;-78
2023/06/28 11:05:45;;;;;;;3.40;1.25;;;29.50;57.00;;;;;;5004101;28;20022;-79
2023/06/28 11:08:12;;;;;;;4.20;1.45;;;29.70;56.20;;;;;;5005647;28;20065;-78
2023/06/28 11:10:40;;;;;;;1.70;1.13;;;29.80;55.50;;;;;;5016485;28;20109;-78
2023/06/28 11:13:45;;;;;;;2.17;1.15;;;29.80;55.50;;;;;;5006236;28;20042;-78
2023/06/28 11:16:16;;;;;;;2.35;1.35;;;29.80;53.00;;;;;;5003475;28;20080;-79
2023/06/28 11:18:42;;;;;;;5.68;1.15;;;29.60;54.50;;;;;;5003333;28;20065;-80
2023/06/28 11:21:15;;;;;;;3.65;1.33;;;29.70;54.60;;;;;;5002507;28;20026;-78
2023/06/28 11:23:42;;;;;;;3.80;1.05;;;29.60;54.60;;;;;;5005457;28;20085;-78
2023/06/28 11:26:18;;;;;;;4.35;1.67;;;29.70;54.90;;;;;;5004408;28;20018;-77
2023/06/28 11:28:54;;;;;;;1.95;1.00;;;29.70;53.60;;;;;;5003111;28;20042;-78
2023/06/28 11:31:24;;;;;;;8.05;6.13;;;29.50;54.50;;;;;;5007853;28;20533;-78
2023/06/28 11:33:54;;;;;;;5.43;4.80;;;29.50;55.90;;;;;;5007930;28;20042;-77
2023/06/28 11:36:25;;;;;;;5.85;3.08;;;29.50;56.20;;;;;;5007996;28;20490;-78
2023/06/28 11:38:51;;;;;;;10.10;6.90;;;29.50;56.30;;;;;;5007762;28;20037;-78
2023/06/28 11:41:17;;;;;;;8.07;5.10;;;29.50;55.30;;;;;;5007801;28;20381;-78
2023/06/28 11:43:47;;;;;;;6.93;4.13;;;29.40;54.90;;;;;;5008851;28;20034;-78
2023/06/28 11:46:18;;;;;;;8.43;4.68;;;29.20;55.30;;;;;;5015001;28;20028;-78
2023/06/28 11:48:45;;;;;;;6.55;2.85;;;29.10;55.70;;;;;;5011416;28;20076;-78
2023/06/28 11:51:12;;;;;;;6.45;2.45;;;29.10;56.00;;;;;;5007790;28;20137;-78
2023/06/28 11:53:38;;;;;;;3.33;1.60;;;29.00;56.50;;;;;;5010270;28;20038;-78
2023/06/28 11:56:04;;;;;;;5.93;1.70;;;29.00;57.10;;;;;;5005104;28;20029;-79
2023/06/28 11:58:32;;;;;;;2.55;1.33;;;28.90;56.80;;;;;;5008981;28;20034;-80
2023/06/28 12:01:05;;;;;;;5.22;1.70;;;28.90;56.40;;;;;;5014173;28;20033;-79
2023/06/28 12:03:30;;;;;;;2.47;1.30;;;28.80;56.40;;;;;;5014332;28;20454;-81
2023/06/28 12:05:57;;;;;;;5.05;1.70;;;28.70;56.40;;;;;;5011226;28;20029;-81
2023/06/28 12:08:22;;;;;;;4.53;1.73;;;28.60;56.50;;;;;;4995695;28;20026;-81
2023/06/28 12:10:48;;;;;;;6.75;1.45;;;28.60;57.00;;;;;;4995784;28;20025;-81
2023/06/28 12:13:23;;;;;;;4.57;1.10;;;28.50;57.10;;;;;;5003433;28;20390;-81
2023/06/28 12:15:49;;;;;;;3.28;1.00;;;28.50;57.40;;;;;;5004312;28;20065;-81
2023/06/28 12:18:15;;;;;;;1.55;1.13;;;28.60;57.60;;;;;;5000061;28;20023;-81
2023/06/28 12:20:41;;;;;;;1.80;1.00;;;28.80;57.80;;;;;;4985188;28;20057;-81
2023/06/28 12:23:13;;;;;;;2.85;1.20;;;28.90;57.50;;;;;;5007334;28;20029;-81
2023/06/28 12:25:43;;;;;;;3.28;0.85;;;29.00;57.10;;;;;;5005371;28;20030;-81
2023/06/28 12:28:13;;;;;;;4.20;1.10;;;29.00;56.90;;;;;;5005705;28;20101;-81
2023/06/28 12:30:38;;;;;;;;;;;29.10;55.80;;;;;;5007638;28;20036;-82
2023/06/28 12:33:09;;;;;;;2.25;0.75;;;29.10;56.30;;;;;;5000586;28;19909;-79
2023/06/28 12:35:35;;;;;;;2.65;0.70;;;29.10;56.40;;;;;;5007451;28;20026;-82
2023/06/28 12:38:02;;;;;;;1.90;1.10;;;29.10;57.00;;;;;;5002377;28;20024;-82
2023/06/28 12:40:29;;;;;;;1.73;1.23;;;29.10;56.80;;;;;;5007653;28;20022;-82
2023/06/28 12:43:14;;;;;;;3.78;1.10;;;29.10;56.10;;;;;;5006161;28;20022;-80
2023/06/28 12:45:49;;;;;;;2.03;0.95;;;29.10;56.00;;;;;;4987326;28;20049;-79
2023/06/28 12:48:16;;;;;;;3.30;0.88;;;29.10;56.80;;;;;;5004326;28;20030;-81